createdAt,value
2023-02-05T00:04:15.432Z,103544.34
2023-02-05T00:09:18.138Z,103535.63
2023-02-05T00:14:19.814Z,103557.00
2023-02-05T00:19:21.456Z,103550.91
2023-02-05T00:24:23.206Z,103543.16
2023-02-05T00:29:24.807Z,103549.63
2023-02-05T00:34:26.415Z,103549.44
2023-02-05T00:39:28.124Z,103564.38
2023-02-05T00:44:29.909Z,103563.16
2023-02-05T00:49:31.562Z,103559.53
2023-02-05T00:54:33.239Z,103570.66
2023-02-05T00:59:34.921Z,103555.91
2023-02-05T01:04:36.532Z,103540.25
2023-02-05T01:09:38.321Z,103537.25
2023-02-05T01:14:41.396Z,103550.44
2023-02-05T01:19:43.037Z,103559.44
2023-02-05T01:24:44.778Z,103552.97
2023-02-05T01:29:46.600Z,103544.13
2023-02-05T01:34:49.007Z,103551.75
2023-02-05T01:39:50.796Z,103535.22
2023-02-05T01:45:21.661Z,103535.22
2023-02-05T01:50:32.292Z,103521.59
2023-02-05T01:55:39.624Z,103508.97
2023-02-05T02:00:41.661Z,103515.94
2023-02-05T02:05:43.436Z,103493.41
2023-02-05T02:10:48.616Z,103505.22
2023-02-05T02:15:50.613Z,103477.94
2023-02-05T02:21:38.977Z,103476.84
2023-02-05T02:27:05.442Z,103471.28
2023-02-05T02:32:24.363Z,103474.00
2023-02-05T02:37:34.434Z,103485.94
2023-02-05T02:42:46.326Z,103476.53
2023-02-05T02:47:53.284Z,103479.91
2023-02-05T02:52:56.372Z,103486.75
2023-02-05T02:57:59.570Z,103479.00
2023-02-05T03:03:05.483Z,103480.78
2023-02-05T03:08:13.862Z,103486.44
2023-02-05T03:13:15.665Z,103497.44
2023-02-05T03:18:24.000Z,103485.94
2023-02-05T03:23:29.755Z,103480.69
2023-02-05T03:28:32.168Z,103473.22
2023-02-05T03:33:57.859Z,103467.06
2023-02-05T03:39:16.339Z,103476.06
2023-02-05T03:44:50.758Z,103463.94
2023-02-05T03:50:07.175Z,103480.38
2023-02-05T03:55:17.451Z,103487.91
2023-02-05T04:00:20.346Z,103507.41
2023-02-05T04:05:26.835Z,103520.31
2023-02-05T04:10:31.859Z,103526.44
2023-02-05T04:15:36.223Z,103524.78
2023-02-05T04:20:41.772Z,103529.47
2023-02-05T04:25:44.417Z,103532.06
2023-02-05T04:30:49.823Z,103544.34
2023-02-05T04:35:51.609Z,103540.00
2023-02-05T04:40:53.558Z,103566.13
2023-02-05T04:45:55.251Z,103570.09
2023-02-05T04:50:56.887Z,103584.56
2023-02-05T04:56:10.110Z,103591.06
2023-02-05T05:01:20.622Z,103603.91
2023-02-05T05:06:22.424Z,103615.69
2023-02-05T05:11:24.054Z,103615.88
2023-02-05T05:16:25.800Z,103617.50
2023-02-05T05:21:27.380Z,103648.72
2023-02-05T05:26:29.007Z,103650.53
2023-02-05T05:31:30.633Z,103644.84
2023-02-05T05:36:32.376Z,103648.41
2023-02-05T05:41:53.000Z,103657.59
2023-02-05T05:46:54.771Z,103656.41
2023-02-05T05:51:56.414Z,103654.78
2023-02-05T05:56:57.996Z,103653.63
2023-02-05T06:02:01.392Z,103661.84
2023-02-05T06:07:03.004Z,103672.31
2023-02-05T06:12:04.765Z,103670.41
2023-02-05T06:17:07.469Z,103674.66
2023-02-05T06:22:09.308Z,103690.94
2023-02-05T06:27:10.975Z,103708.06
2023-02-05T06:32:12.611Z,103714.78
2023-02-05T06:37:14.619Z,103722.91
2023-02-05T06:42:16.230Z,103735.66
2023-02-05T06:47:17.961Z,103735.47
2023-02-05T06:52:19.592Z,103753.03
2023-02-05T06:57:21.263Z,103762.34
2023-02-05T07:02:22.907Z,103777.41
2023-02-05T07:07:24.508Z,103781.25
2023-02-05T07:12:26.387Z,103788.03
2023-02-05T07:17:27.973Z,103806.38
2023-02-05T07:22:29.635Z,103821.97
2023-02-05T07:27:31.335Z,103838.88
2023-02-05T07:32:32.922Z,103838.19
2023-02-05T07:37:37.351Z,103851.97
2023-02-05T07:42:38.968Z,103850.13
2023-02-05T07:47:42.533Z,103850.31
2023-02-05T07:52:44.434Z,103851.53
2023-02-05T07:57:47.183Z,103853.56
2023-02-05T08:02:49.589Z,103854.56
2023-02-05T08:07:51.463Z,103852.53
2023-02-05T08:12:53.178Z,103861.25
2023-02-05T08:17:55.397Z,103869.06
2023-02-05T08:22:57.177Z,103850.56
2023-02-05T08:27:58.960Z,103873.53
2023-02-05T08:33:00.753Z,103893.69
2023-02-05T08:38:03.780Z,103889.91
2023-02-05T08:43:05.550Z,103903.38
2023-02-05T08:48:07.873Z,103912.25
2023-02-05T08:53:09.789Z,103937.25
2023-02-05T08:58:11.636Z,103939.59
2023-02-05T09:03:13.384Z,103938.22
2023-02-05T09:08:15.041Z,103941.06
2023-02-05T09:13:16.787Z,103950.13
2023-02-05T09:18:18.580Z,103933.88
2023-02-05T09:23:20.601Z,103928.72
2023-02-05T09:28:22.378Z,103944.56
2023-02-05T09:33:24.168Z,103950.09
2023-02-05T09:38:25.793Z,103922.88
2023-02-05T09:43:52.351Z,103918.50
2023-02-05T09:49:42.286Z,103950.81
2023-02-05T09:54:49.728Z,103971.47
2023-02-05T09:59:51.456Z,103966.44
2023-02-05T10:04:54.912Z,103972.53
2023-02-05T10:10:16.106Z,103963.75
2023-02-05T10:15:53.280Z,103957.00
2023-02-05T10:21:13.351Z,103960.75
2023-02-05T10:26:18.372Z,103949.28
2023-02-05T10:31:42.243Z,103955.75
2023-02-05T10:36:49.267Z,103976.63
2023-02-05T10:42:06.841Z,103986.09
2023-02-05T10:47:24.909Z,103992.06
2023-02-05T10:52:26.922Z,103990.28
2023-02-05T10:57:34.051Z,103975.25
2023-02-05T11:02:41.498Z,103973.66
2023-02-05T11:07:49.613Z,103966.94
2023-02-05T11:12:55.761Z,103953.22
2023-02-05T11:18:04.469Z,103940.19
2023-02-05T11:23:17.966Z,103957.56
2023-02-05T11:28:27.820Z,103967.31
2023-02-05T11:33:31.439Z,103974.22
2023-02-05T11:38:42.195Z,103971.66
2023-02-05T11:43:50.972Z,103967.84
2023-02-05T11:49:00.853Z,103977.03
2023-02-05T11:54:07.618Z,103977.22
2023-02-05T11:59:22.774Z,103979.19
2023-02-05T12:04:26.370Z,103982.34
2023-02-05T12:09:28.092Z,103986.06
2023-02-05T12:15:00.939Z,103974.91
2023-02-05T12:20:16.725Z,103978.16
2023-02-05T12:25:51.668Z,103977.75
2023-02-05T12:30:58.054Z,103988.03
2023-02-05T12:36:27.090Z,103979.44
2023-02-05T12:41:53.190Z,103997.75
2023-02-05T12:47:19.705Z,103988.09
2023-02-05T12:53:13.915Z,104013.69
2023-02-05T12:58:19.135Z,103993.41
2023-02-05T13:03:38.833Z,104005.00
2023-02-05T13:09:05.511Z,104013.00
2023-02-05T13:14:19.998Z,104010.94
2023-02-05T13:19:30.930Z,104008.66
2023-02-05T13:25:06.808Z,104017.97
2023-02-05T13:30:16.884Z,104010.09
2023-02-05T13:35:22.034Z,104021.47
2023-02-05T13:40:47.325Z,104016.56
2023-02-05T13:46:38.976Z,104021.53
2023-02-05T13:51:55.821Z,104034.38
2023-02-05T13:57:31.536Z,104035.59
2023-02-05T14:02:43.497Z,104035.59
2023-02-05T14:07:50.874Z,104033.34
2023-02-05T14:12:52.978Z,104051.00
2023-02-05T14:17:55.902Z,104034.13
2023-02-05T14:23:01.078Z,104024.50
2023-02-05T14:28:08.944Z,104034.13
2023-02-05T14:33:10.682Z,104028.25
2023-02-05T14:38:31.208Z,104038.44
2023-02-05T14:43:36.422Z,104038.25
2023-02-05T14:48:43.185Z,104050.75
2023-02-05T14:53:55.877Z,104053.34
2023-02-05T14:59:05.217Z,104061.25
2023-02-05T15:04:20.446Z,104061.66
2023-02-05T15:09:45.993Z,104048.00
2023-02-05T15:14:47.546Z,104054.91
2023-02-05T15:20:05.932Z,104069.06
2023-02-05T15:25:28.167Z,104067.84
2023-02-05T15:30:45.989Z,104077.94
2023-02-05T15:35:49.886Z,104085.25
2023-02-05T15:40:52.627Z,104082.13
2023-02-05T15:46:14.635Z,104071.38
2023-02-05T15:51:28.744Z,104102.34
2023-02-05T15:56:41.399Z,104124.63
2023-02-05T16:01:49.494Z,104135.53
2023-02-05T16:06:51.130Z,104161.03
2023-02-05T16:11:53.193Z,104155.53
2023-02-05T16:17:25.234Z,104146.16
2023-02-05T16:22:42.681Z,104153.00
2023-02-05T16:27:49.457Z,104149.94
2023-02-05T16:32:55.821Z,104164.84
2023-02-05T16:37:58.977Z,104171.13
2023-02-05T16:43:16.100Z,104184.72
2023-02-05T16:48:23.405Z,104189.00
2023-02-05T16:53:31.615Z,104182.47
2023-02-05T16:58:38.372Z,104176.63
2023-02-05T17:03:41.553Z,104197.66
2023-02-05T17:08:52.940Z,104182.41
2023-02-05T17:14:12.930Z,104195.44
2023-02-05T17:19:33.228Z,104196.84
2023-02-05T17:24:34.910Z,104204.56
2023-02-05T17:29:37.780Z,104202.34
2023-02-05T17:34:39.683Z,104193.94
2023-02-05T17:39:41.671Z,104196.41
2023-02-05T17:44:43.337Z,104202.09
2023-02-05T17:49:45.052Z,104207.84
2023-02-05T17:54:47.508Z,104198.22
2023-02-05T17:59:50.295Z,104194.66
2023-02-05T18:04:52.633Z,104195.81
2023-02-05T18:09:54.401Z,104203.72
2023-02-05T18:14:56.376Z,104210.63
2023-02-05T18:19:58.042Z,104196.38
2023-02-05T18:24:59.759Z,104200.25
2023-02-05T18:30:01.768Z,104222.88
2023-02-05T18:35:14.988Z,104222.31
2023-02-05T18:40:16.903Z,104225.72
2023-02-05T18:45:19.445Z,104239.28
2023-02-05T18:50:21.979Z,104250.19
2023-02-05T18:55:23.767Z,104269.66
2023-02-05T19:00:25.533Z,104261.34
2023-02-05T19:05:27.748Z,104267.78
2023-02-05T19:10:29.566Z,104270.38
2023-02-05T19:15:31.786Z,104271.44
2023-02-05T19:20:34.427Z,104276.94
2023-02-05T19:25:37.332Z,104262.50
2023-02-05T19:30:39.242Z,104269.66
2023-02-05T19:35:41.334Z,104267.78
2023-02-05T19:40:43.278Z,104259.66
2023-02-05T19:45:45.469Z,104248.28
2023-02-05T19:50:47.187Z,104252.56
2023-02-05T19:55:49.117Z,104266.78
2023-02-05T20:00:51.628Z,104251.56
2023-02-05T20:05:53.510Z,104258.88
2023-02-05T20:11:00.002Z,104268.06
2023-02-05T20:16:07.625Z,104266.66
2023-02-05T20:21:12.247Z,104277.72
2023-02-05T20:26:18.926Z,104266.03
2023-02-05T20:31:33.517Z,104262.47
2023-02-05T20:36:37.729Z,104269.38
2023-02-05T20:41:39.437Z,104267.09
2023-02-05T20:46:41.450Z,104272.25
2023-02-05T20:51:43.783Z,104281.03
2023-02-05T20:56:45.433Z,104285.78
2023-02-05T21:01:47.244Z,104294.06
2023-02-05T21:06:49.422Z,104300.44
2023-02-05T21:11:55.480Z,104287.63
2023-02-05T21:16:57.379Z,104288.44
2023-02-05T21:21:59.362Z,104284.53
2023-02-05T21:27:01.233Z,104287.31
2023-02-05T21:32:02.970Z,104293.91
2023-02-05T21:37:04.638Z,104305.00
2023-02-05T21:42:06.346Z,104305.19
2023-02-05T21:47:08.020Z,104299.84
2023-02-05T21:52:09.856Z,104318.94
2023-02-05T21:57:11.533Z,104322.22
2023-02-05T22:02:13.277Z,104310.94
2023-02-05T22:07:14.900Z,104306.44
2023-02-05T22:12:16.489Z,104312.13
2023-02-05T22:17:18.237Z,104306.59
2023-02-05T22:22:19.899Z,104308.44
2023-02-05T22:27:21.723Z,104314.50
2023-02-05T22:32:23.554Z,104307.91
2023-02-05T22:37:25.219Z,104317.25
2023-02-05T22:42:27.010Z,104298.53
2023-02-05T22:47:29.281Z,104290.66
2023-02-05T22:52:30.879Z,104297.09
2023-02-05T22:57:32.551Z,104315.03
2023-02-05T23:02:34.581Z,104314.81
2023-02-05T23:07:36.210Z,104312.22
2023-02-05T23:12:37.841Z,104317.47
2023-02-05T23:17:39.542Z,104308.56
2023-02-05T23:22:41.260Z,104321.38
2023-02-05T23:27:43.003Z,104320.44
2023-02-05T23:32:44.762Z,104319.16
2023-02-05T23:37:46.409Z,104319.34
2023-02-05T23:42:48.001Z,104319.97
2023-02-05T23:47:49.583Z,104304.44
2023-02-05T23:52:51.285Z,104288.13
2023-02-05T23:57:53.480Z,104294.16
